Bloomingdale, Indiana
Current Conditions -  °F | °C
As of 3:15 PM on Thursday 30 Oct 2014 (Local Time) from KPRG Reporting Station
Broken Clouds Broken Clouds  
Wind Chill: 54°   Ceiling: 7500
Heat Index: 54°   Visibility: 10mi
Dew Point: 35°   Wind: 5mph
Humidity: 49%   Direction: 220°SW
Pressure: 30.09"   Gusts: NA
Location:  39.83°N, 87.25°W
Report Text: KPRG 301915Z AUTO 22004KT 10SM BKN075 BKN110 12/02 A3009 RMK AO2 T01200016
Loading
Personal Weather Stations






























Interactive Weather Map
Tropical Storm Tracking
New forecast layout! Learn more

10-Day Weather Forecast

Advertisements
Track Severe Weather on mobile